Latest Weather Observations for Cooktown

IDQ60801

Issued at 8:32 pm EST Sunday 24 July 2016 (issued every 30 minutes, with the page automatically refreshed every 10 minutes)

About weather observations | Map of weather stations | Latest weather observations for QLD | Other Formats
Station Details ID: 031209 Name: COOKTOWN AIRPORT Lat: -15.45 Lon: 145.19 Height: 4.8 m
Data from the previous 72 hours. | See also: Recent months at Cooktown
Date/Time
EST
Temp
°C
App
Temp
°C
Dew
Point
°C
Rel
Hum
%
Delta-T
°C
Wind Press
QNH
hPa
Press
MSL
hPa
Rain since
9am
mm
Dir  Spd
km/h
Gust
km/h
Spd
kts
Gust
kts
24/08:30pm 22.0 23.7 19.3 85 1.7 SSE 9 13 5 7 1014.9 - 0.0
24/08:00pm 22.3 23.6 19.3 83 1.9 SE 11 17 6 9 1014.5 - 0.0
24/07:30pm 22.8 24.1 19.3 80 2.2 SE 11 17 6 9 1014.1 - 0.0
24/07:00pm 22.9 23.8 19.3 80 2.3 SE 13 15 7 8 1013.8 - 0.0
24/06:30pm 23.0 24.1 19.6 81 2.2 ESE 13 22 7 12 1013.6 - 0.0
24/06:00pm 24.0 24.4 19.0 73 3.2 ESE 15 24 8 13 1013.3 1013.2 0.0
24/05:30pm 24.6 24.2 18.8 70 3.7 ESE 19 26 10 14 1013.0 - 0.0
24/05:00pm 25.4 25.5 19.2 68 4.0 ESE 17 26 9 14 1012.9 - 0.0
24/04:30pm 26.0 25.5 19.0 65 4.5 ESE 20 28 11 15 1012.5 - 0.0
24/04:00pm 26.0 24.7 18.1 61 5.0 ESE 22 32 12 17 1012.4 - 0.0
24/03:30pm 26.6 25.5 18.6 61 5.1 ESE 22 32 12 17 1012.6 - 0.0
24/03:00pm 26.6 25.2 18.8 62 5.0 ESE 24 37 13 20 1012.8 1012.9 0.0
24/02:30pm 27.2 26.2 18.8 60 5.4 ESE 22 32 12 17 1013.2 - 0.0
24/02:00pm 26.9 25.4 18.6 60 5.3 ESE 24 33 13 18 1013.5 - 0.0
24/01:30pm 27.0 25.8 18.4 59 5.5 ESE 22 33 12 18 1013.8 - 0.0
24/01:00pm 26.5 25.9 18.8 62 4.9 ESE 20 32 11 17 1014.4 - 0.0
24/12:30pm 26.1 25.0 18.6 63 4.8 SE 22 30 12 16 1014.6 - 0.0
24/12:00pm 27.7 28.2 20.0 63 5.0 SE 17 22 9 12 1014.7 1014.7 0.0
24/11:30am 26.3 25.4 19.0 64 4.7 SE 22 35 12 19 1015.1 - 0.0
24/11:00am 26.1 25.8 19.6 67 4.2 SE 20 32 11 17 1015.4 - 0.0
24/10:30am 25.2 25.5 20.3 74 3.2 ESE 19 26 10 14 1015.6 - 0.0
24/10:00am 24.9 26.1 20.6 77 2.8 SE 15 24 8 13 1015.5 - 0.0
24/09:30am 25.6 26.4 20.7 74 3.2 SE 17 26 9 14 1015.5 - 0.0
24/09:00am 25.0 26.2 20.7 77 2.8 SSE 15 20 8 11 1015.1 1015.0 0.0
24/08:30am 24.2 26.8 21.2 83 2.0 S 9 13 5 7 1014.7 - 0.0
24/08:00am 23.3 25.8 21.0 87 1.5 S 9 15 5 8 1014.4 - 0.0
24/07:30am 22.3 25.1 20.8 91 1.0 S 7 9 4 5 1014.1 - 0.0
24/07:00am 21.2 23.6 20.1 93 0.7 S 7 7 4 4 1013.9 - 0.0
24/06:30am 21.4 23.9 20.2 93 0.8 S 7 9 4 5 1013.6 - 0.0
24/06:00am 21.9 24.3 20.0 89 1.2 SSE 7 9 4 5 1013.3 1013.2 0.0
24/05:30am 23.1 24.0 19.3 79 2.4 ESE 13 19 7 10 1013.0 - 0.0
24/05:00am 22.9 24.2 19.3 80 2.3 SE 11 17 6 9 1012.8 - 0.0
24/04:30am 23.3 23.8 19.2 78 2.6 ESE 15 22 8 12 1012.7 - 0.0
24/04:00am 23.3 24.8 19.7 80 2.3 SE 11 19 6 10 1012.7 - 0.0
24/03:30am 22.7 25.0 20.7 88 1.3 SE 9 17 5 9 1012.7 - 0.0
24/03:00am 22.1 24.4 20.6 91 1.0 SSE 9 13 5 7 1012.9 1012.9 0.0
24/02:30am 21.8 24.0 20.4 92 0.9 SSE 9 11 5 6 1013.1 - 0.0
24/02:00am 22.3 24.6 19.8 86 1.6 ESE 7 11 4 6 1013.2 - 0.0
24/01:30am 23.4 25.0 20.0 81 2.2 SE 11 15 6 8 1013.5 - 0.0
24/01:00am 23.4 24.6 20.0 81 2.2 ESE 13 19 7 10 1013.6 - 0.0
24/12:30am 23.5 24.9 20.3 82 2.1 ESE 13 17 7 9 1013.5 - 0.0
24/12:00am 23.3 25.3 20.8 86 1.6 ESE 11 13 6 7 1013.5 1013.5 0.0
 
Date/Time
EST
Temp
°C
App
Temp
°C
Dew
Point
°C
Rel
Hum
%
Delta-T
°C
Wind Press
QNH
hPa
Press
MSL
hPa
Rain since
9am
mm
Dir  Spd
km/h
Gust
km/h
Spd
kts
Gust
kts
23/11:30pm 23.1 25.1 20.8 87 1.5 ESE 11 13 6 7 1013.7 - 0.0
23/11:00pm 23.2 25.1 20.6 85 1.7 SE 11 17 6 9 1013.6 - 0.0
23/10:30pm 23.1 25.1 20.8 87 1.5 SE 11 15 6 8 1013.7 - 0.0
23/10:00pm 23.1 25.2 21.0 88 1.4 ESE 11 17 6 9 1013.8 - 0.0
23/09:30pm 23.2 25.4 21.1 88 1.4 SE 11 17 6 9 1013.6 - 0.0
23/09:00pm 22.7 25.0 20.7 88 1.3 SSE 9 17 5 9 1013.4 1013.4 0.0
23/08:30pm 22.7 25.1 20.9 89 1.2 SE 9 15 5 8 1013.2 - 0.0
23/08:00pm 23.2 25.6 20.9 87 1.5 SE 9 15 5 8 1013.0 - 0.0
23/07:30pm 23.4 25.9 21.0 86 1.6 SE 9 15 5 8 1012.8 - 0.0
23/07:28pm 23.3 25.3 20.8 86 1.6 SE 11 20 6 11 1012.8 - 0.0
23/07:00pm 23.3 25.9 21.2 88 1.4 E 9 11 5 6 1012.6 - 0.0
23/06:32pm 23.2 25.0 21.2 88 1.3 E 13 20 7 11 1012.5 - 0.0
23/06:30pm 23.2 25.0 21.1 88 1.4 E 13 20 7 11 1012.5 - 0.0
23/06:00pm 24.0 24.7 20.5 81 2.3 ESE 17 26 9 14 1012.2 1012.2 0.0
23/05:30pm 24.7 25.0 20.4 77 2.8 ESE 19 24 10 13 1011.8 - 0.0
23/05:00pm 25.4 25.2 19.8 71 3.6 ESE 20 30 11 16 1011.7 - 0.0
23/04:30pm 26.0 26.6 20.2 70 3.8 ESE 17 26 9 14 1011.5 - 0.0
23/04:00pm 26.4 26.4 19.8 67 4.3 ESE 19 26 10 14 1011.3 - 0.0
23/03:30pm 26.8 26.7 19.5 64 4.7 ESE 19 26 10 14 1011.3 - 0.0
23/03:00pm 27.2 28.0 19.8 64 4.8 SE 15 26 8 14 1011.5 1011.5 0.0
23/02:30pm 26.2 27.6 20.4 70 3.8 SE 13 24 7 13 1011.8 - 0.0
23/02:00pm 26.9 26.5 19.3 63 4.9 ESE 20 28 11 15 1012.1 - 0.0
23/01:30pm 26.6 28.2 20.8 70 3.8 SE 13 20 7 11 1012.6 - 0.0
23/01:00pm 26.3 26.3 19.7 67 4.3 ESE 19 30 10 16 1013.0 - 0.0
23/12:30pm 27.1 27.9 20.6 67 4.3 ESE 17 24 9 13 1013.4 - 0.0
23/12:00pm 26.5 26.7 20.6 70 3.9 ESE 20 28 11 15 1013.7 1013.7 0.0
23/11:30am 27.3 28.7 20.4 66 4.5 SE 13 19 7 10 1013.7 - 0.0
23/11:00am 27.3 27.8 20.9 68 4.2 E 19 28 10 15 1014.1 - 0.0
23/10:00am 25.5 26.7 20.6 74 3.2 SE 15 20 8 11 1014.9 - 0.0
23/09:30am 23.6 27.2 21.2 86 1.6 WNW 4 7 2 4 1015.0 - 0.0
23/09:00am 21.7 24.4 20.3 92 0.9 NW 6 7 3 4 1014.9 1014.9 0.0
23/08:30am 20.8 23.3 19.9 95 0.6 WNW 6 7 3 4 1014.7 - 0.0
23/08:00am 20.0 22.3 19.5 97 0.3 WNW 6 7 3 4 1014.3 - 0.0
23/07:30am 19.0 22.0 18.5 97 0.3 CALM 0 0 0 0 1014.2 - 0.0
23/07:00am 18.7 20.9 18.4 98 0.2 WNW 4 6 2 3 1013.9 - 0.0
23/06:30am 18.2 20.5 17.7 97 0.3 WNW 2 6 1 3 1013.7 - 0.0
23/06:00am 18.8 21.7 18.2 96 0.4 CALM 0 0 0 0 1013.6 1013.6 0.0
23/05:30am 18.2 20.4 17.5 96 0.4 W 2 7 1 4 1013.2 - 0.0
23/05:00am 19.1 20.8 18.5 96 0.4 WNW 7 9 4 5 1012.9 - 0.0
23/04:30am 19.7 21.7 19.1 96 0.4 W 7 9 4 5 1012.8 - 0.0
23/04:00am 20.3 23.6 19.0 92 0.8 CALM 0 0 0 0 1012.7 - 0.0
23/03:30am 21.7 23.8 20.1 91 1.0 S 9 13 5 7 1012.7 - 0.0
23/03:00am 22.6 24.0 20.4 87 1.4 SE 13 19 7 10 1012.8 1012.8 0.0
23/02:30am 22.9 23.6 20.4 86 1.6 ESE 17 26 9 14 1012.8 - 0.0
23/02:00am 22.5 24.7 20.5 88 1.3 SSE 9 15 5 8 1012.9 - 0.0
23/01:30am 22.8 23.9 20.5 87 1.5 E 15 20 8 11 1013.1 - 0.0
23/01:00am 22.4 23.8 20.4 88 1.3 SE 13 20 7 11 1013.4 - 0.0
23/12:30am 21.6 24.3 20.2 92 0.9 SSE 6 9 3 5 1013.7 - 0.0
23/12:00am 21.4 23.9 20.2 93 0.8 SSE 7 11 4 6 1013.8 1013.8 0.0
 
Date/Time
EST
Temp
°C
App
Temp
°C
Dew
Point
°C
Rel
Hum
%
Delta-T
°C
Wind Press
QNH
hPa
Press
MSL
hPa
Rain since
9am
mm
Dir  Spd
km/h
Gust
km/h
Spd
kts
Gust
kts
22/11:30pm 19.9 22.4 19.1 95 0.5 S 4 7 2 4 1014.0 - 0.0
22/11:00pm 20.5 22.7 19.6 95 0.6 S 7 13 4 7 1014.0 - 0.0
22/10:30pm 19.5 22.2 18.7 95 0.5 NW 2 7 1 4 1014.1 - 0.0
22/10:00pm 20.2 22.2 19.2 94 0.6 WNW 7 11 4 6 1014.0 - 0.0
22/09:30pm 19.6 21.9 18.6 94 0.6 NNW 4 7 2 4 1013.8 - 0.0
22/09:00pm 19.7 22.9 18.9 95 0.5 CALM 0 0 0 0 1013.7 1013.7 0.0
22/08:30pm 20.2 23.5 19.2 94 0.6 CALM 0 0 0 0 1013.5 - 0.0
22/08:00pm 20.7 24.1 19.4 92 0.8 CALM 0 0 0 0 1013.4 - 0.0
22/07:30pm 20.9 24.4 19.5 92 0.9 CALM 0 0 0 0 1013.3 - 0.0
22/07:00pm 22.1 24.4 19.4 85 1.7 SE 6 7 3 4 1013.1 - 0.0
22/06:30pm 23.0 24.7 19.4 80 2.3 ESE 9 13 5 7 1012.7 - 0.0
22/06:00pm 23.8 25.2 19.6 77 2.7 SE 11 15 6 8 1012.6 1012.6 0.0
22/05:30pm 24.6 25.7 19.6 73 3.2 SE 13 22 7 12 1012.6 - 0.0
22/05:00pm 25.2 26.1 20.0 73 3.4 SE 15 20 8 11 1012.6 - 0.0
22/04:30pm 26.1 27.5 20.3 70 3.8 SE 13 19 7 10 1012.5 - 0.0
22/04:00pm 26.2 27.5 20.2 69 3.9 SE 13 24 7 13 1012.4 - 0.0
22/03:30pm 26.1 27.3 19.9 68 4.0 SE 13 20 7 11 1012.7 - 0.0
22/03:00pm 25.7 26.3 20.2 71 3.6 SE 17 24 9 13 1012.9 1012.9 0.0
22/02:30pm 26.4 27.2 19.9 67 4.2 SE 15 24 8 13 1013.3 - 0.0
22/02:00pm 25.9 26.0 20.4 71 3.6 SE 20 41 11 22 1013.7 - 0.0
22/01:30pm 27.0 27.1 19.9 65 4.6 ESE 19 26 10 14 1013.8 - 0.0
22/01:00pm 27.3 27.3 19.8 63 4.9 SE 19 30 10 16 1014.3 - 0.0
22/12:30pm 24.8 25.1 20.5 77 2.8 ESE 19 32 10 17 1014.7 - 0.0
22/12:00pm 26.4 26.5 19.9 67 4.2 SE 19 30 10 16 1014.9 1015.0 0.0
22/11:30am 26.5 26.9 20.6 70 3.9 ESE 19 28 10 15 1015.3 - 0.0
22/11:00am 26.3 26.9 21.0 72 3.5 SE 19 28 10 15 1015.7 - 0.0
22/10:30am 25.7 26.0 20.5 73 3.4 SSE 19 30 10 16 1015.8 - 0.0
22/10:00am 25.7 26.2 20.8 74 3.2 SSE 19 26 10 14 1015.9 - 0.0
22/09:30am 25.1 25.9 20.7 76 2.9 SE 17 28 9 15 1015.9 - 0.0
22/09:00am 25.5 26.6 20.4 73 3.3 SE 15 20 8 11 1015.7 1015.7 4.0
22/08:30am 25.0 26.4 20.4 75 3.0 SE 13 19 7 10 1015.4 - 4.0
22/08:00am 23.7 25.9 20.5 82 2.1 SSE 9 15 5 8 1015.1 - 4.0
22/07:30am 22.2 24.7 20.3 89 1.2 S 7 13 4 7 1014.8 - 4.0
22/07:00am 23.0 24.1 19.6 81 2.2 SE 13 20 7 11 1014.6 - 4.0
22/06:30am 22.6 24.7 20.9 90 1.1 SE 11 15 6 8 1014.4 - 4.0
22/06:00am 22.6 25.4 21.5 93 0.7 S 9 11 5 6 1014.2 1014.2 4.0
22/05:58am 22.6 25.7 21.4 93 0.8 S 7 11 4 6 1014.2 - 4.0
22/05:54am 22.6 25.4 21.5 93 0.7 S 9 13 5 7 1014.1 - 4.0
22/05:47am 22.7 25.1 21.5 93 0.8 S 11 15 6 8 1014.1 - 4.0
22/05:37am 23.0 24.0 21.0 88 1.3 SE 17 24 9 13 1014.0 - 3.8
22/05:30am 23.2 24.7 21.2 88 1.3 E 15 20 8 11 1013.9 - 3.6
22/05:00am 22.5 24.8 20.7 89 1.2 E 9 15 5 8 1013.6 - 3.6
22/04:43am 22.4 23.4 21.0 92 0.9 ESE 17 24 9 13 1013.7 - 3.6
22/04:30am 22.2 23.6 21.1 93 0.7 ESE 15 20 8 11 1013.7 - 3.6
22/04:19am 22.3 22.8 20.8 91 1.0 SE 19 28 10 15 1013.8 - 3.6
22/04:17am 22.4 23.2 20.7 90 1.1 SE 17 28 9 15 1013.8 - 3.6
22/04:00am 22.6 23.7 21.2 92 0.9 SE 17 24 9 13 1013.7 - 3.4
22/03:58am 22.7 23.8 21.2 91 1.0 SE 17 24 9 13 1013.8 - 3.4
22/03:54am 22.8 23.6 21.3 91 1.0 SE 19 28 10 15 1013.7 - 3.4
22/03:44am 22.8 23.7 20.8 88 1.3 SE 17 32 9 17 1013.7 - 3.4
22/03:30am 23.1 24.8 21.6 91 1.0 SE 15 22 8 12 1013.8 - 3.4
22/03:26am 23.2 24.4 21.5 90 1.1 SE 17 24 9 13 1013.7 - 3.4
22/03:07am 23.1 24.8 21.7 92 0.9 SE 15 22 8 12 1013.8 - 3.4
22/03:05am 23.1 24.8 21.7 92 0.9 SE 15 24 8 13 1013.8 - 3.4
22/03:04am 23.1 24.8 21.7 92 0.9 SE 15 24 8 13 1013.8 - 3.4
22/03:00am 23.1 24.1 21.7 92 0.9 SE 19 30 10 16 1013.8 1013.8 3.4
22/02:45am 23.3 24.7 21.8 91 1.0 ESE 17 26 9 14 1013.9 - 3.0
22/02:42am 23.5 24.5 21.7 90 1.2 ESE 19 26 10 14 1013.8 - 2.4
22/02:30am 23.4 25.1 21.7 90 1.1 ESE 15 26 8 14 1013.8 - 2.4
22/02:08am 23.0 25.2 21.9 93 0.7 E 13 19 7 10 1014.0 - 2.4
22/02:04am 23.0 25.2 21.8 93 0.8 E 13 20 7 11 1014.1 - 2.4
22/02:00am 22.9 24.2 21.7 93 0.8 ESE 17 22 9 12 1014.1 - 2.4
22/01:39am 22.8 25.8 22.0 95 0.5 SSE 9 15 5 8 1014.3 - 2.0
22/01:35am 22.8 25.8 21.9 95 0.6 SSE 9 15 5 8 1014.2 - 1.8
22/01:30am 22.8 25.3 21.7 93 0.7 SE 11 17 6 9 1014.2 - 1.8
22/01:19am 22.8 24.5 21.7 93 0.7 SE 15 20 8 11 1014.3 - 1.8
22/01:13am 22.7 23.9 21.5 93 0.8 SE 17 30 9 16 1014.4 - 1.8
22/01:00am 22.7 23.0 21.6 93 0.7 SE 22 39 12 21 1014.5 - 1.8
22/12:53am 23.0 24.4 21.9 93 0.7 SSE 17 33 9 18 1014.6 - 1.8
22/12:30am 23.5 25.8 22.0 91 1.0 ESE 13 24 7 13 1014.5 - 1.6
22/12:14am 23.5 25.0 22.0 91 1.0 ESE 17 24 9 13 1014.5 - 1.6
22/12:11am 23.5 25.3 21.8 90 1.1 ESE 15 24 8 13 1014.5 - 1.6
22/12:02am 23.2 25.9 22.1 93 0.7 SE 11 19 6 10 1014.5 - 1.6
22/12:00am 23.2 25.9 22.1 93 0.7 ESE 11 19 6 10 1014.5 1014.6 1.6
 
Date/Time
EST
Temp
°C
App
Temp
°C
Dew
Point
°C
Rel
Hum
%
Delta-T
°C
Wind Press
QNH
hPa
Press
MSL
hPa
Rain since
9am
mm
Dir  Spd
km/h
Gust
km/h
Spd
kts
Gust
kts
21/11:45pm 23.4 24.6 22.2 93 0.8 SE 19 32 10 17 1014.6 - 1.6
21/11:43pm 23.5 25.1 22.1 92 0.9 SE 17 32 9 17 1014.6 - 1.6
21/11:30pm 23.2 25.9 22.1 93 0.7 ESE 11 20 6 11 1014.6 - 1.4
21/11:29pm 23.3 26.2 22.4 95 0.6 ESE 11 20 6 11 1014.7 - 1.4
21/11:00pm 23.2 25.5 22.1 93 0.7 SE 13 17 7 9 1014.9 - 1.0
21/10:39pm 23.3 24.9 22.1 93 0.8 ESE 17 26 9 14 1015.0 - 0.6
21/10:38pm 23.4 24.9 22.0 92 0.9 SE 17 26 9 14 1015.0 - 0.6
21/10:37pm 23.4 24.5 22.0 92 0.9 SE 19 26 10 14 1015.0 - 0.6
21/10:30pm 23.8 25.2 21.8 88 1.3 SE 17 28 9 15 1015.0 - 0.6
21/10:12pm 24.2 26.0 21.9 87 1.5 ESE 15 20 8 11 1015.0 - 0.6
21/10:00pm 24.1 25.3 21.5 85 1.7 ESE 17 24 9 13 1015.0 - 0.6
21/09:30pm 23.9 25.0 21.2 85 1.8 ESE 17 22 9 12 1014.9 - 0.6
21/09:10pm 23.5 26.6 22.1 92 0.9 SE 9 13 5 7 1014.8 - 0.6
21/09:00pm 23.7 27.4 22.5 93 0.8 SSE 7 11 4 6 1014.8 1014.8 0.6
21/08:51pm 23.7 27.5 22.7 94 0.7 S 7 11 4 6 1014.8 - 0.6

Other Formats:

Comma delimited format used in spreadsheet applications
http://www.bom.gov.au/fwo/IDQ60801/IDQ60801.95283.axf

JavaScript Object Notation format (JSON) in row-major order
http://www.bom.gov.au/fwo/IDQ60801/IDQ60801.95283.json